sensor_id;sensor_type;location;lat;lon;timestamp;P1;durP1;ratioP1;P2;durP2;ratioP2
57331;SDS011;43164;50.908;18.092;2022-10-18T00:00:52;9.40;;;3.80;;
57331;SDS011;43164;50.908;18.092;2022-10-18T00:03:19;8.10;;;3.80;;
57331;SDS011;43164;50.908;18.092;2022-10-18T00:05:47;10.60;;;3.80;;
57331;SDS011;43164;50.908;18.092;2022-10-18T00:08:15;9.20;;;3.90;;
57331;SDS011;43164;50.908;18.092;2022-10-18T00:10:42;8.60;;;3.90;;
57331;SDS011;43164;50.908;18.092;2022-10-18T00:13:10;10.20;;;3.90;;
57331;SDS011;43164;50.908;18.092;2022-10-18T00:15:36;12.10;;;4.10;;
57331;SDS011;43164;50.908;18.092;2022-10-18T00:18:04;9.00;;;4.20;;
57331;SDS011;43164;50.908;18.092;2022-10-18T00:20:30;13.40;;;4.60;;
57331;SDS011;43164;50.908;18.092;2022-10-18T00:22:58;9.50;;;4.30;;
57331;SDS011;43164;50.908;18.092;2022-10-18T00:25:25;14.70;;;4.50;;
57331;SDS011;43164;50.908;18.092;2022-10-18T00:27:53;10.70;;;4.00;;
57331;SDS011;43164;50.908;18.092;2022-10-18T00:30:19;9.40;;;4.00;;
57331;SDS011;43164;50.908;18.092;2022-10-18T00:32:47;10.60;;;4.60;;
57331;SDS011;43164;50.908;18.092;2022-10-18T00:35:14;12.10;;;4.20;;
57331;SDS011;43164;50.908;18.092;2022-10-18T00:37:42;12.90;;;4.80;;
57331;SDS011;43164;50.908;18.092;2022-10-18T00:40:09;10.90;;;4.20;;
57331;SDS011;43164;50.908;18.092;2022-10-18T00:42:37;10.80;;;4.20;;
57331;SDS011;43164;50.908;18.092;2022-10-18T00:45:22;9.40;;;4.20;;
57331;SDS011;43164;50.908;18.092;2022-10-18T00:47:52;10.00;;;4.80;;
57331;SDS011;43164;50.908;18.092;2022-10-18T00:50:32;13.10;;;5.00;;
57331;SDS011;43164;50.908;18.092;2022-10-18T00:53:01;9.30;;;4.40;;
57331;SDS011;43164;50.908;18.092;2022-10-18T00:55:30;12.00;;;5.50;;
57331;SDS011;43164;50.908;18.092;2022-10-18T00:57:58;10.00;;;4.30;;
57331;SDS011;43164;50.908;18.092;2022-10-18T01:00:25;9.60;;;4.50;;
57331;SDS011;43164;50.908;18.092;2022-10-18T01:02:52;11.70;;;4.80;;
57331;SDS011;43164;50.908;18.092;2022-10-18T01:05:19;12.70;;;5.30;;
57331;SDS011;43164;50.908;18.092;2022-10-18T01:07:59;10.70;;;5.30;;
57331;SDS011;43164;50.908;18.092;2022-10-18T01:10:53;12.60;;;6.00;;
57331;SDS011;43164;50.908;18.092;2022-10-18T01:16:52;16.00;;;6.60;;
57331;SDS011;43164;50.908;18.092;2022-10-18T01:30:34;12.10;;;5.20;;
57331;SDS011;43164;50.908;18.092;2022-10-18T01:33:24;11.70;;;5.40;;
57331;SDS011;43164;50.908;18.092;2022-10-18T01:38:43;10.10;;;5.20;;
57331;SDS011;43164;50.908;18.092;2022-10-18T01:41:11;13.30;;;5.40;;
57331;SDS011;43164;50.908;18.092;2022-10-18T01:43:39;11.10;;;5.10;;
57331;SDS011;43164;50.908;18.092;2022-10-18T01:46:07;12.30;;;5.20;;
57331;SDS011;43164;50.908;18.092;2022-10-18T01:48:35;11.40;;;5.40;;
57331;SDS011;43164;50.908;18.092;2022-10-18T01:51:08;14.40;;;5.40;;
57331;SDS011;43164;50.908;18.092;2022-10-18T01:53:36;12.80;;;5.40;;
57331;SDS011;43164;50.908;18.092;2022-10-18T01:56:08;10.80;;;4.70;;
57331;SDS011;43164;50.908;18.092;2022-10-18T01:58:55;11.20;;;5.40;;
57331;SDS011;43164;50.908;18.092;2022-10-18T02:04:28;12.80;;;6.90;;
57331;SDS011;43164;50.908;18.092;2022-10-18T02:07:28;13.20;;;6.80;;
57331;SDS011;43164;50.908;18.092;2022-10-18T02:10:11;18.10;;;12.00;;
57331;SDS011;43164;50.908;18.092;2022-10-18T02:12:58;14.40;;;7.60;;
57331;SDS011;43164;50.908;18.092;2022-10-18T02:15:28;15.00;;;7.50;;
57331;SDS011;43164;50.908;18.092;2022-10-18T02:17:58;14.70;;;7.60;;
57331;SDS011;43164;50.908;18.092;2022-10-18T02:20:27;18.40;;;7.70;;
57331;SDS011;43164;50.908;18.092;2022-10-18T02:22:58;15.70;;;7.60;;
57331;SDS011;43164;50.908;18.092;2022-10-18T02:25:26;16.50;;;7.80;;
57331;SDS011;43164;50.908;18.092;2022-10-18T02:27:57;13.40;;;6.30;;
57331;SDS011;43164;50.908;18.092;2022-10-18T02:30:27;13.30;;;7.70;;
57331;SDS011;43164;50.908;18.092;2022-10-18T02:33:06;13.70;;;6.90;;
57331;SDS011;43164;50.908;18.092;2022-10-18T02:35:48;13.80;;;6.70;;
57331;SDS011;43164;50.908;18.092;2022-10-18T02:38:18;13.70;;;5.90;;
57331;SDS011;43164;50.908;18.092;2022-10-18T02:40:46;13.10;;;5.50;;
57331;SDS011;43164;50.908;18.092;2022-10-18T02:43:14;12.60;;;5.90;;
57331;SDS011;43164;50.908;18.092;2022-10-18T02:45:41;13.20;;;5.60;;
57331;SDS011;43164;50.908;18.092;2022-10-18T02:48:09;15.80;;;6.60;;
57331;SDS011;43164;50.908;18.092;2022-10-18T02:50:36;11.80;;;5.40;;
57331;SDS011;43164;50.908;18.092;2022-10-18T02:53:03;12.30;;;5.10;;
57331;SDS011;43164;50.908;18.092;2022-10-18T02:55:30;11.40;;;5.40;;
57331;SDS011;43164;50.908;18.092;2022-10-18T02:57:58;10.60;;;5.40;;
57331;SDS011;43164;50.908;18.092;2022-10-18T03:00:24;11.80;;;5.60;;
57331;SDS011;43164;50.908;18.092;2022-10-18T03:02:52;13.70;;;5.30;;
57331;SDS011;43164;50.908;18.092;2022-10-18T03:05:18;12.40;;;6.40;;
57331;SDS011;43164;50.908;18.092;2022-10-18T03:07:46;16.80;;;7.00;;
57331;SDS011;43164;50.908;18.092;2022-10-18T03:10:12;13.40;;;6.60;;
57331;SDS011;43164;50.908;18.092;2022-10-18T03:12:40;14.70;;;6.60;;
57331;SDS011;43164;50.908;18.092;2022-10-18T03:15:08;16.50;;;7.00;;
57331;SDS011;43164;50.908;18.092;2022-10-18T03:17:36;16.40;;;6.70;;
57331;SDS011;43164;50.908;18.092;2022-10-18T03:20:03;14.00;;;6.90;;
57331;SDS011;43164;50.908;18.092;2022-10-18T03:22:31;13.70;;;6.70;;
57331;SDS011;43164;50.908;18.092;2022-10-18T03:24:59;12.80;;;6.80;;
57331;SDS011;43164;50.908;18.092;2022-10-18T03:27:27;15.60;;;7.30;;
57331;SDS011;43164;50.908;18.092;2022-10-18T03:29:54;16.10;;;7.80;;
57331;SDS011;43164;50.908;18.092;2022-10-18T03:32:22;15.20;;;7.20;;
57331;SDS011;43164;50.908;18.092;2022-10-18T03:34:50;16.50;;;8.30;;
57331;SDS011;43164;50.908;18.092;2022-10-18T03:37:17;24.90;;;12.30;;
57331;SDS011;43164;50.908;18.092;2022-10-18T03:39:44;15.10;;;7.30;;
57331;SDS011;43164;50.908;18.092;2022-10-18T03:42:12;15.00;;;7.40;;
57331;SDS011;43164;50.908;18.092;2022-10-18T03:44:39;14.90;;;7.40;;
57331;SDS011;43164;50.908;18.092;2022-10-18T03:47:07;15.50;;;7.80;;
57331;SDS011;43164;50.908;18.092;2022-10-18T03:49:34;14.80;;;8.70;;
57331;SDS011;43164;50.908;18.092;2022-10-18T03:52:02;15.30;;;7.80;;
57331;SDS011;43164;50.908;18.092;2022-10-18T03:54:30;13.30;;;7.70;;
57331;SDS011;43164;50.908;18.092;2022-10-18T03:56:58;13.90;;;7.40;;
57331;SDS011;43164;50.908;18.092;2022-10-18T03:59:25;18.80;;;7.80;;
57331;SDS011;43164;50.908;18.092;2022-10-18T04:01:52;13.30;;;7.50;;
57331;SDS011;43164;50.908;18.092;2022-10-18T04:04:20;17.40;;;7.60;;
57331;SDS011;43164;50.908;18.092;2022-10-18T04:06:48;15.60;;;7.80;;
57331;SDS011;43164;50.908;18.092;2022-10-18T04:09:16;13.90;;;5.90;;
57331;SDS011;43164;50.908;18.092;2022-10-18T04:11:43;12.50;;;6.40;;
57331;SDS011;43164;50.908;18.092;2022-10-18T04:14:11;11.90;;;6.70;;
57331;SDS011;43164;50.908;18.092;2022-10-18T04:16:38;15.70;;;6.80;;
57331;SDS011;43164;50.908;18.092;2022-10-18T04:19:06;13.40;;;6.40;;
57331;SDS011;43164;50.908;18.092;2022-10-18T04:21:33;12.80;;;6.00;;
57331;SDS011;43164;50.908;18.092;2022-10-18T04:24:01;15.30;;;6.60;;
57331;SDS011;43164;50.908;18.092;2022-10-18T04:26:29;12.70;;;6.60;;
57331;SDS011;43164;50.908;18.092;2022-10-18T04:28:57;19.40;;;6.10;;
57331;SDS011;43164;50.908;18.092;2022-10-18T04:31:25;14.20;;;7.20;;
57331;SDS011;43164;50.908;18.092;2022-10-18T04:33:53;14.20;;;6.40;;
57331;SDS011;43164;50.908;18.092;2022-10-18T04:36:21;16.10;;;8.00;;
57331;SDS011;43164;50.908;18.092;2022-10-18T04:38:48;53.60;;;36.30;;
57331;SDS011;43164;50.908;18.092;2022-10-18T04:41:16;25.50;;;18.40;;
57331;SDS011;43164;50.908;18.092;2022-10-18T04:43:44;22.90;;;14.40;;
57331;SDS011;43164;50.908;18.092;2022-10-18T04:46:12;26.30;;;16.50;;
57331;SDS011;43164;50.908;18.092;2022-10-18T04:48:40;21.90;;;12.40;;
57331;SDS011;43164;50.908;18.092;2022-10-18T04:51:08;21.90;;;11.90;;
57331;SDS011;43164;50.908;18.092;2022-10-18T04:53:34;19.30;;;11.20;;
57331;SDS011;43164;50.908;18.092;2022-10-18T04:56:02;19.90;;;11.50;;
57331;SDS011;43164;50.908;18.092;2022-10-18T04:58:29;17.80;;;10.00;;
57331;SDS011;43164;50.908;18.092;2022-10-18T05:00:57;18.70;;;11.40;;
57331;SDS011;43164;50.908;18.092;2022-10-18T05:03:24;14.80;;;7.90;;
57331;SDS011;43164;50.908;18.092;2022-10-18T05:05:52;17.70;;;8.70;;
57331;SDS011;43164;50.908;18.092;2022-10-18T05:08:20;16.90;;;8.10;;
57331;SDS011;43164;50.908;18.092;2022-10-18T05:10:48;19.60;;;9.70;;
57331;SDS011;43164;50.908;18.092;2022-10-18T05:13:16;16.80;;;8.80;;
57331;SDS011;43164;50.908;18.092;2022-10-18T05:15:44;14.90;;;7.60;;
57331;SDS011;43164;50.908;18.092;2022-10-18T05:18:12;15.80;;;8.30;;
57331;SDS011;43164;50.908;18.092;2022-10-18T05:20:39;15.40;;;7.80;;
57331;SDS011;43164;50.908;18.092;2022-10-18T05:23:07;15.30;;;7.60;;
57331;SDS011;43164;50.908;18.092;2022-10-18T05:25:39;11.70;;;6.40;;
57331;SDS011;43164;50.908;18.092;2022-10-18T05:28:08;16.50;;;6.00;;
57331;SDS011;43164;50.908;18.092;2022-10-18T05:30:38;11.00;;;5.70;;
57331;SDS011;43164;50.908;18.092;2022-10-18T05:33:06;13.60;;;7.00;;
57331;SDS011;43164;50.908;18.092;2022-10-18T05:35:33;15.80;;;6.90;;
57331;SDS011;43164;50.908;18.092;2022-10-18T05:38:02;13.80;;;7.00;;
57331;SDS011;43164;50.908;18.092;2022-10-18T05:40:31;16.30;;;7.00;;
57331;SDS011;43164;50.908;18.092;2022-10-18T05:43:00;14.40;;;6.80;;
57331;SDS011;43164;50.908;18.092;2022-10-18T05:45:27;11.50;;;6.30;;
57331;SDS011;43164;50.908;18.092;2022-10-18T05:47:55;13.50;;;6.10;;
57331;SDS011;43164;50.908;18.092;2022-10-18T05:50:22;14.60;;;6.90;;
57331;SDS011;43164;50.908;18.092;2022-10-18T05:52:49;11.10;;;5.90;;
57331;SDS011;43164;50.908;18.092;2022-10-18T05:55:16;13.80;;;7.10;;
57331;SDS011;43164;50.908;18.092;2022-10-18T05:57:47;14.10;;;6.10;;
57331;SDS011;43164;50.908;18.092;2022-10-18T06:00:17;11.70;;;5.70;;
57331;SDS011;43164;50.908;18.092;2022-10-18T06:02:45;11.90;;;6.00;;
57331;SDS011;43164;50.908;18.092;2022-10-18T06:05:13;12.10;;;6.10;;
57331;SDS011;43164;50.908;18.092;2022-10-18T06:07:41;13.90;;;6.20;;
57331;SDS011;43164;50.908;18.092;2022-10-18T06:10:09;14.80;;;6.60;;
57331;SDS011;43164;50.908;18.092;2022-10-18T06:12:37;15.40;;;5.60;;
57331;SDS011;43164;50.908;18.092;2022-10-18T06:15:05;14.20;;;6.20;;
57331;SDS011;43164;50.908;18.092;2022-10-18T06:17:33;16.20;;;6.30;;
57331;SDS011;43164;50.908;18.092;2022-10-18T06:20:02;13.70;;;5.80;;
57331;SDS011;43164;50.908;18.092;2022-10-18T06:22:30;12.80;;;5.90;;
57331;SDS011;43164;50.908;18.092;2022-10-18T06:24:58;12.20;;;5.70;;
57331;SDS011;43164;50.908;18.092;2022-10-18T06:27:26;11.80;;;6.00;;
57331;SDS011;43164;50.908;18.092;2022-10-18T06:29:53;11.20;;;6.00;;
57331;SDS011;43164;50.908;18.092;2022-10-18T06:32:21;12.70;;;5.80;;
57331;SDS011;43164;50.908;18.092;2022-10-18T06:34:49;10.20;;;5.20;;
57331;SDS011;43164;50.908;18.092;2022-10-18T06:37:18;12.70;;;5.90;;
57331;SDS011;43164;50.908;18.092;2022-10-18T06:39:46;12.10;;;5.40;;
57331;SDS011;43164;50.908;18.092;2022-10-18T06:42:14;12.50;;;5.00;;
57331;SDS011;43164;50.908;18.092;2022-10-18T06:44:42;12.80;;;5.70;;
57331;SDS011;43164;50.908;18.092;2022-10-18T06:47:16;12.10;;;5.90;;
57331;SDS011;43164;50.908;18.092;2022-10-18T06:49:44;10.60;;;5.20;;
57331;SDS011;43164;50.908;18.092;2022-10-18T06:52:12;11.70;;;5.70;;
57331;SDS011;43164;50.908;18.092;2022-10-18T06:54:41;11.30;;;4.90;;
57331;SDS011;43164;50.908;18.092;2022-10-18T06:57:09;13.00;;;5.50;;
57331;SDS011;43164;50.908;18.092;2022-10-18T06:59:37;13.90;;;5.30;;
57331;SDS011;43164;50.908;18.092;2022-10-18T07:02:05;9.70;;;5.20;;
57331;SDS011;43164;50.908;18.092;2022-10-18T07:04:33;11.00;;;5.20;;
57331;SDS011;43164;50.908;18.092;2022-10-18T07:07:02;11.80;;;4.80;;
57331;SDS011;43164;50.908;18.092;2022-10-18T07:09:30;13.50;;;5.60;;
57331;SDS011;43164;50.908;18.092;2022-10-18T07:11:58;11.20;;;5.90;;
57331;SDS011;43164;50.908;18.092;2022-10-18T07:14:26;16.10;;;6.10;;
57331;SDS011;43164;50.908;18.092;2022-10-18T07:16:57;10.50;;;4.70;;
57331;SDS011;43164;50.908;18.092;2022-10-18T07:19:27;9.70;;;4.60;;
57331;SDS011;43164;50.908;18.092;2022-10-18T07:21:55;10.50;;;4.90;;
57331;SDS011;43164;50.908;18.092;2022-10-18T07:24:23;10.90;;;4.80;;
57331;SDS011;43164;50.908;18.092;2022-10-18T07:26:53;9.20;;;4.30;;
57331;SDS011;43164;50.908;18.092;2022-10-18T07:29:21;10.50;;;4.30;;
57331;SDS011;43164;50.908;18.092;2022-10-18T07:31:51;10.60;;;4.70;;
57331;SDS011;43164;50.908;18.092;2022-10-18T07:34:19;13.00;;;5.00;;
57331;SDS011;43164;50.908;18.092;2022-10-18T07:36:47;11.40;;;4.60;;
57331;SDS011;43164;50.908;18.092;2022-10-18T07:39:15;10.40;;;4.50;;
57331;SDS011;43164;50.908;18.092;2022-10-18T07:41:44;11.10;;;4.60;;
57331;SDS011;43164;50.908;18.092;2022-10-18T07:44:13;10.80;;;4.50;;
57331;SDS011;43164;50.908;18.092;2022-10-18T07:46:41;8.70;;;3.80;;
57331;SDS011;43164;50.908;18.092;2022-10-18T07:49:09;11.20;;;4.20;;
57331;SDS011;43164;50.908;18.092;2022-10-18T07:51:36;11.30;;;4.30;;
57331;SDS011;43164;50.908;18.092;2022-10-18T07:54:04;9.50;;;4.30;;
57331;SDS011;43164;50.908;18.092;2022-10-18T07:56:32;11.30;;;4.60;;
57331;SDS011;43164;50.908;18.092;2022-10-18T07:58:59;10.70;;;4.10;;
57331;SDS011;43164;50.908;18.092;2022-10-18T08:01:27;8.90;;;4.30;;
57331;SDS011;43164;50.908;18.092;2022-10-18T08:03:55;10.30;;;5.10;;
57331;SDS011;43164;50.908;18.092;2022-10-18T08:06:25;10.70;;;4.70;;
57331;SDS011;43164;50.908;18.092;2022-10-18T08:08:53;11.50;;;4.50;;
57331;SDS011;43164;50.908;18.092;2022-10-18T08:11:22;10.80;;;4.90;;
57331;SDS011;43164;50.908;18.092;2022-10-18T08:13:51;11.80;;;4.70;;
57331;SDS011;43164;50.908;18.092;2022-10-18T08:16:25;8.40;;;4.30;;
57331;SDS011;43164;50.908;18.092;2022-10-18T08:18:56;11.60;;;4.80;;
57331;SDS011;43164;50.908;18.092;2022-10-18T08:21:24;13.50;;;5.20;;
57331;SDS011;43164;50.908;18.092;2022-10-18T08:23:53;12.30;;;4.60;;
57331;SDS011;43164;50.908;18.092;2022-10-18T08:26:22;10.40;;;5.10;;
57331;SDS011;43164;50.908;18.092;2022-10-18T08:28:58;11.30;;;5.30;;
57331;SDS011;43164;50.908;18.092;2022-10-18T08:31:27;12.60;;;4.90;;
57331;SDS011;43164;50.908;18.092;2022-10-18T08:33:56;11.40;;;5.10;;
57331;SDS011;43164;50.908;18.092;2022-10-18T08:36:24;13.20;;;5.10;;
57331;SDS011;43164;50.908;18.092;2022-10-18T08:38:52;12.70;;;5.00;;
57331;SDS011;43164;50.908;18.092;2022-10-18T08:44:23;10.00;;;5.00;;
57331;SDS011;43164;50.908;18.092;2022-10-18T08:47:12;12.20;;;5.10;;
57331;SDS011;43164;50.908;18.092;2022-10-18T08:50:02;10.50;;;5.60;;
57331;SDS011;43164;50.908;18.092;2022-10-18T08:52:44;10.00;;;4.90;;
57331;SDS011;43164;50.908;18.092;2022-10-18T08:55:28;11.30;;;5.40;;
57331;SDS011;43164;50.908;18.092;2022-10-18T08:58:11;18.30;;;6.00;;
57331;SDS011;43164;50.908;18.092;2022-10-18T09:09:34;12.00;;;5.30;;
57331;SDS011;43164;50.908;18.092;2022-10-18T09:20:21;12.30;;;5.70;;
57331;SDS011;43164;50.908;18.092;2022-10-18T09:23:00;11.00;;;5.30;;
57331;SDS011;43164;50.908;18.092;2022-10-18T09:25:48;12.40;;;5.50;;
57331;SDS011;43164;50.908;18.092;2022-10-18T09:34:01;11.60;;;5.90;;
57331;SDS011;43164;50.908;18.092;2022-10-18T09:36:44;10.80;;;5.60;;
57331;SDS011;43164;50.908;18.092;2022-10-18T09:39:18;10.00;;;5.30;;
57331;SDS011;43164;50.908;18.092;2022-10-18T09:42:04;11.70;;;6.00;;
57331;SDS011;43164;50.908;18.092;2022-10-18T09:44:46;10.70;;;5.90;;
57331;SDS011;43164;50.908;18.092;2022-10-18T09:47:20;15.70;;;5.90;;
57331;SDS011;43164;50.908;18.092;2022-10-18T09:49:58;13.30;;;5.60;;
57331;SDS011;43164;50.908;18.092;2022-10-18T09:52:35;13.90;;;6.40;;
57331;SDS011;43164;50.908;18.092;2022-10-18T09:55:18;12.60;;;6.40;;
57331;SDS011;43164;50.908;18.092;2022-10-18T09:57:57;11.10;;;5.60;;
57331;SDS011;43164;50.908;18.092;2022-10-18T10:00:30;13.80;;;6.40;;
57331;SDS011;43164;50.908;18.092;2022-10-18T10:03:10;13.10;;;6.40;;
57331;SDS011;43164;50.908;18.092;2022-10-18T10:05:39;13.10;;;6.40;;
57331;SDS011;43164;50.908;18.092;2022-10-18T10:08:08;12.00;;;5.80;;
57331;SDS011;43164;50.908;18.092;2022-10-18T10:10:37;11.10;;;5.90;;
57331;SDS011;43164;50.908;18.092;2022-10-18T10:13:17;12.10;;;6.10;;
57331;SDS011;43164;50.908;18.092;2022-10-18T10:15:53;12.70;;;6.10;;
57331;SDS011;43164;50.908;18.092;2022-10-18T10:18:23;11.60;;;5.60;;
57331;SDS011;43164;50.908;18.092;2022-10-18T10:20:52;10.20;;;5.60;;
57331;SDS011;43164;50.908;18.092;2022-10-18T10:23:26;11.70;;;6.40;;
57331;SDS011;43164;50.908;18.092;2022-10-18T10:25:57;11.10;;;5.70;;
57331;SDS011;43164;50.908;18.092;2022-10-18T10:28:33;13.50;;;6.00;;
57331;SDS011;43164;50.908;18.092;2022-10-18T10:31:18;11.90;;;6.00;;
57331;SDS011;43164;50.908;18.092;2022-10-18T10:34:04;14.10;;;6.50;;
57331;SDS011;43164;50.908;18.092;2022-10-18T10:36:45;11.60;;;6.10;;
57331;SDS011;43164;50.908;18.092;2022-10-18T10:39:15;12.90;;;6.60;;
57331;SDS011;43164;50.908;18.092;2022-10-18T10:41:52;16.20;;;6.70;;
57331;SDS011;43164;50.908;18.092;2022-10-18T10:44:25;11.90;;;5.50;;
57331;SDS011;43164;50.908;18.092;2022-10-18T10:46:55;11.10;;;6.40;;
57331;SDS011;43164;50.908;18.092;2022-10-18T10:49:24;12.40;;;6.10;;
57331;SDS011;43164;50.908;18.092;2022-10-18T10:52:15;11.20;;;6.10;;
57331;SDS011;43164;50.908;18.092;2022-10-18T10:54:59;13.30;;;6.40;;
57331;SDS011;43164;50.908;18.092;2022-10-18T10:57:29;14.50;;;6.90;;
57331;SDS011;43164;50.908;18.092;2022-10-18T10:59:58;12.40;;;6.40;;
57331;SDS011;43164;50.908;18.092;2022-10-18T11:02:30;12.80;;;7.10;;
57331;SDS011;43164;50.908;18.092;2022-10-18T11:07:57;14.10;;;7.90;;
57331;SDS011;43164;50.908;18.092;2022-10-18T11:10:29;10.70;;;6.30;;
57331;SDS011;43164;50.908;18.092;2022-10-18T11:13:07;14.10;;;6.70;;
57331;SDS011;43164;50.908;18.092;2022-10-18T11:15:53;14.80;;;7.90;;
57331;SDS011;43164;50.908;18.092;2022-10-18T11:18:33;14.00;;;7.10;;
57331;SDS011;43164;50.908;18.092;2022-10-18T11:21:07;14.70;;;7.70;;
57331;SDS011;43164;50.908;18.092;2022-10-18T11:23:42;12.50;;;6.60;;
57331;SDS011;43164;50.908;18.092;2022-10-18T11:26:14;12.80;;;7.00;;
57331;SDS011;43164;50.908;18.092;2022-10-18T11:31:58;13.00;;;7.20;;
57331;SDS011;43164;50.908;18.092;2022-10-18T11:47:13;12.80;;;7.00;;
57331;SDS011;43164;50.908;18.092;2022-10-18T11:50:37;13.70;;;7.60;;
57331;SDS011;43164;50.908;18.092;2022-10-18T11:53:32;16.90;;;7.00;;
57331;SDS011;43164;50.908;18.092;2022-10-18T12:06:47;13.00;;;7.80;;
57331;SDS011;43164;50.908;18.092;2022-10-18T12:09:42;16.30;;;7.10;;
57331;SDS011;43164;50.908;18.092;2022-10-18T12:20:17;14.80;;;7.20;;
57331;SDS011;43164;50.908;18.092;2022-10-18T12:27:10;16.40;;;7.90;;
57331;SDS011;43164;50.908;18.092;2022-10-18T12:29:48;12.60;;;7.50;;
57331;SDS011;43164;50.908;18.092;2022-10-18T12:32:28;11.40;;;6.50;;
57331;SDS011;43164;50.908;18.092;2022-10-18T12:35:22;15.00;;;7.90;;
57331;SDS011;43164;50.908;18.092;2022-10-18T12:41:27;13.20;;;7.30;;
57331;SDS011;43164;50.908;18.092;2022-10-18T12:47:46;12.80;;;7.10;;
57331;SDS011;43164;50.908;18.092;2022-10-18T12:50:34;12.80;;;7.20;;
57331;SDS011;43164;50.908;18.092;2022-10-18T13:02:27;18.00;;;8.00;;
57331;SDS011;43164;50.908;18.092;2022-10-18T13:04:55;14.50;;;7.40;;
57331;SDS011;43164;50.908;18.092;2022-10-18T13:07:33;13.30;;;7.30;;
57331;SDS011;43164;50.908;18.092;2022-10-18T13:31:03;17.60;;;7.50;;
57331;SDS011;43164;50.908;18.092;2022-10-18T13:36:57;11.40;;;6.70;;
57331;SDS011;43164;50.908;18.092;2022-10-18T13:39:38;15.30;;;7.30;;
57331;SDS011;43164;50.908;18.092;2022-10-18T13:42:17;13.00;;;7.40;;
57331;SDS011;43164;50.908;18.092;2022-10-18T13:44:51;13.60;;;7.20;;
57331;SDS011;43164;50.908;18.092;2022-10-18T13:47:48;14.40;;;7.50;;
57331;SDS011;43164;50.908;18.092;2022-10-18T13:57:52;15.50;;;7.40;;
57331;SDS011;43164;50.908;18.092;2022-10-18T14:00:54;15.20;;;7.10;;
57331;SDS011;43164;50.908;18.092;2022-10-18T14:03:40;13.90;;;6.80;;
57331;SDS011;43164;50.908;18.092;2022-10-18T14:06:58;13.40;;;7.30;;
57331;SDS011;43164;50.908;18.092;2022-10-18T14:10:02;13.30;;;7.00;;
57331;SDS011;43164;50.908;18.092;2022-10-18T14:12:40;15.70;;;7.20;;
57331;SDS011;43164;50.908;18.092;2022-10-18T14:15:15;15.30;;;7.10;;
57331;SDS011;43164;50.908;18.092;2022-10-18T14:20:25;19.20;;;9.60;;
57331;SDS011;43164;50.908;18.092;2022-10-18T14:23:01;17.60;;;8.70;;
57331;SDS011;43164;50.908;18.092;2022-10-18T14:25:45;12.30;;;7.30;;
57331;SDS011;43164;50.908;18.092;2022-10-18T14:28:17;13.90;;;7.90;;
57331;SDS011;43164;50.908;18.092;2022-10-18T14:30:53;13.80;;;7.70;;
57331;SDS011;43164;50.908;18.092;2022-10-18T14:33:43;17.00;;;7.70;;
57331;SDS011;43164;50.908;18.092;2022-10-18T14:36:24;13.60;;;7.70;;
57331;SDS011;43164;50.908;18.092;2022-10-18T14:39:01;15.50;;;8.50;;
57331;SDS011;43164;50.908;18.092;2022-10-18T14:41:31;16.50;;;8.60;;
57331;SDS011;43164;50.908;18.092;2022-10-18T14:46:52;16.10;;;8.00;;
57331;SDS011;43164;50.908;18.092;2022-10-18T14:49:30;14.30;;;8.10;;
57331;SDS011;43164;50.908;18.092;2022-10-18T14:51:58;14.50;;;7.80;;
57331;SDS011;43164;50.908;18.092;2022-10-18T14:54:36;13.90;;;8.00;;
57331;SDS011;43164;50.908;18.092;2022-10-18T15:00:07;15.90;;;8.20;;
57331;SDS011;43164;50.908;18.092;2022-10-18T15:02:36;16.80;;;8.60;;
57331;SDS011;43164;50.908;18.092;2022-10-18T15:05:13;13.80;;;7.70;;
57331;SDS011;43164;50.908;18.092;2022-10-18T15:07:48;14.30;;;7.50;;
57331;SDS011;43164;50.908;18.092;2022-10-18T15:10:18;16.00;;;8.80;;
57331;SDS011;43164;50.908;18.092;2022-10-18T15:12:57;14.70;;;8.60;;
57331;SDS011;43164;50.908;18.092;2022-10-18T15:15:35;16.90;;;9.00;;
57331;SDS011;43164;50.908;18.092;2022-10-18T15:18:21;16.60;;;9.40;;
57331;SDS011;43164;50.908;18.092;2022-10-18T15:21:17;16.60;;;8.70;;
57331;SDS011;43164;50.908;18.092;2022-10-18T15:23:50;14.00;;;8.80;;
57331;SDS011;43164;50.908;18.092;2022-10-18T15:26:27;17.10;;;9.20;;
57331;SDS011;43164;50.908;18.092;2022-10-18T15:28:56;16.70;;;8.70;;
57331;SDS011;43164;50.908;18.092;2022-10-18T15:31:32;18.40;;;8.30;;
57331;SDS011;43164;50.908;18.092;2022-10-18T15:34:19;15.30;;;8.60;;
57331;SDS011;43164;50.908;18.092;2022-10-18T15:36:54;14.60;;;8.40;;
57331;SDS011;43164;50.908;18.092;2022-10-18T15:39:33;14.80;;;8.00;;
57331;SDS011;43164;50.908;18.092;2022-10-18T15:42:30;14.20;;;8.20;;
57331;SDS011;43164;50.908;18.092;2022-10-18T15:53:24;15.40;;;8.30;;
57331;SDS011;43164;50.908;18.092;2022-10-18T16:02:59;13.90;;;8.30;;
57331;SDS011;43164;50.908;18.092;2022-10-18T16:05:47;17.80;;;10.30;;
57331;SDS011;43164;50.908;18.092;2022-10-18T16:08:30;22.30;;;11.50;;
57331;SDS011;43164;50.908;18.092;2022-10-18T16:11:23;23.70;;;12.20;;
57331;SDS011;43164;50.908;18.092;2022-10-18T16:13:56;19.70;;;12.30;;
57331;SDS011;43164;50.908;18.092;2022-10-18T16:16:28;21.80;;;12.50;;
57331;SDS011;43164;50.908;18.092;2022-10-18T16:28:45;18.90;;;10.50;;
57331;SDS011;43164;50.908;18.092;2022-10-18T16:31:18;10.50;;;3.30;;
57331;SDS011;43164;50.908;18.092;2022-10-18T16:33:53;4.10;;;1.50;;
57331;SDS011;43164;50.908;18.092;2022-10-18T16:36:31;5.00;;;2.00;;
57331;SDS011;43164;50.908;18.092;2022-10-18T16:39:14;5.60;;;1.90;;
57331;SDS011;43164;50.908;18.092;2022-10-18T16:41:51;2.50;;;0.70;;
57331;SDS011;43164;50.908;18.092;2022-10-18T16:51:37;4.80;;;2.00;;
57331;SDS011;43164;50.908;18.092;2022-10-18T17:07:16;4.70;;;2.00;;
57331;SDS011;43164;50.908;18.092;2022-10-18T17:16:00;3.60;;;0.90;;
57331;SDS011;43164;50.908;18.092;2022-10-18T17:21:44;4.10;;;1.20;;
57331;SDS011;43164;50.908;18.092;2022-10-18T17:24:28;11.40;;;7.30;;
57331;SDS011;43164;50.908;18.092;2022-10-18T17:27:13;30.70;;;21.30;;
57331;SDS011;43164;50.908;18.092;2022-10-18T17:29:50;35.10;;;21.00;;
57331;SDS011;43164;50.908;18.092;2022-10-18T17:32:21;101.90;;;62.60;;
57331;SDS011;43164;50.908;18.092;2022-10-18T17:35:04;67.90;;;46.00;;
57331;SDS011;43164;50.908;18.092;2022-10-18T17:37:45;14.40;;;8.80;;
57331;SDS011;43164;50.908;18.092;2022-10-18T17:40:19;7.10;;;3.30;;
57331;SDS011;43164;50.908;18.092;2022-10-18T17:42:52;8.00;;;4.60;;
57331;SDS011;43164;50.908;18.092;2022-10-18T17:45:26;3.50;;;1.00;;
57331;SDS011;43164;50.908;18.092;2022-10-18T17:48:17;4.50;;;1.30;;
57331;SDS011;43164;50.908;18.092;2022-10-18T17:50:50;12.30;;;7.80;;
57331;SDS011;43164;50.908;18.092;2022-10-18T17:53:31;19.40;;;13.30;;
57331;SDS011;43164;50.908;18.092;2022-10-18T17:56:08;16.50;;;8.60;;
57331;SDS011;43164;50.908;18.092;2022-10-18T17:58:43;19.10;;;11.80;;
57331;SDS011;43164;50.908;18.092;2022-10-18T18:01:17;7.40;;;3.80;;
57331;SDS011;43164;50.908;18.092;2022-10-18T18:03:56;4.60;;;1.90;;
57331;SDS011;43164;50.908;18.092;2022-10-18T18:06:32;4.80;;;1.10;;
57331;SDS011;43164;50.908;18.092;2022-10-18T18:09:15;2.80;;;1.10;;
57331;SDS011;43164;50.908;18.092;2022-10-18T18:11:50;3.80;;;1.30;;
57331;SDS011;43164;50.908;18.092;2022-10-18T18:14:28;3.90;;;1.50;;